createdAt,value
2019-04-22T00:02:03.849Z,4.53
2019-04-22T00:04:49.889Z,4.70
2019-04-22T00:07:30.254Z,4.47
2019-04-22T00:10:09.554Z,4.70
2019-04-22T00:12:37.320Z,4.37
2019-04-22T00:15:02.220Z,4.63
2019-04-22T00:17:46.512Z,4.30
2019-04-22T00:20:11.459Z,4.40
2019-04-22T00:22:38.742Z,4.47
2019-04-22T00:25:14.460Z,4.00
2019-04-22T00:27:47.733Z,4.33
2019-04-22T00:30:16.483Z,4.07
2019-04-22T00:33:02.821Z,4.60
2019-04-22T00:35:29.239Z,4.17
2019-04-22T00:38:12.862Z,4.23
2019-04-22T00:40:39.312Z,4.20
2019-04-22T00:43:05.105Z,4.10
2019-04-22T00:48:17.842Z,3.93
2019-04-22T00:50:46.742Z,3.90
2019-04-22T00:53:20.140Z,3.70
2019-04-22T00:56:09.427Z,3.80
2019-04-22T00:58:39.480Z,3.97
2019-04-22T01:01:11.215Z,3.80
2019-04-22T01:03:43.105Z,3.93
2019-04-22T01:06:14.834Z,3.50
2019-04-22T01:08:46.619Z,3.90
2019-04-22T01:11:17.264Z,3.43
2019-04-22T01:13:44.345Z,3.40
2019-04-22T01:16:17.764Z,3.40
2019-04-22T01:18:52.300Z,3.63
2019-04-22T01:21:24.366Z,3.27
2019-04-22T01:23:50.648Z,3.57
2019-04-22T01:26:23.035Z,3.87
2019-04-22T01:28:51.586Z,3.63
2019-04-22T01:31:12.290Z,3.20
2019-04-22T01:33:45.794Z,3.57
2019-04-22T01:36:33.530Z,3.57
2019-04-22T01:39:07.228Z,3.80
2019-04-22T01:41:41.795Z,3.40
2019-04-22T01:44:28.746Z,3.47
2019-04-22T01:46:47.735Z,3.50
2019-04-22T01:49:14.877Z,3.50
2019-04-22T01:54:22.112Z,3.43
2019-04-22T01:56:53.989Z,3.30
2019-04-22T01:59:14.015Z,3.10
2019-04-22T02:04:30.374Z,3.07
2019-04-22T02:06:59.817Z,3.10
2019-04-22T02:09:31.138Z,3.13
2019-04-22T02:12:00.561Z,3.10
2019-04-22T02:14:37.469Z,3.40
2019-04-22T02:17:01.341Z,3.50
2019-04-22T02:19:37.611Z,2.93
2019-04-22T02:22:12.443Z,3.30
2019-04-22T02:24:54.269Z,3.20
2019-04-22T02:27:17.387Z,3.20
2019-04-22T02:29:44.575Z,2.90
2019-04-22T02:32:37.105Z,2.97
2019-04-22T02:35:01.216Z,3.23
2019-04-22T02:37:18.769Z,3.20
2019-04-22T02:39:55.061Z,2.97
2019-04-22T02:47:27.762Z,3.03
2019-04-22T02:50:01.778Z,3.03
2019-04-22T02:52:32.469Z,2.97
2019-04-22T02:55:11.531Z,2.83
2019-04-22T02:57:35.640Z,2.90
2019-04-22T03:02:50.713Z,2.90
2019-04-22T03:05:08.886Z,3.00
2019-04-22T03:07:41.074Z,2.87
2019-04-22T03:10:24.587Z,3.00
2019-04-22T03:17:43.750Z,2.83
2019-04-22T03:22:55.140Z,2.87
2019-04-22T03:27:48.379Z,2.70
2019-04-22T03:30:48.294Z,2.90
2019-04-22T03:43:02.465Z,2.73
2019-04-22T03:45:42.604Z,2.80
2019-04-22T03:48:17.674Z,2.90
2019-04-22T03:58:11.053Z,2.70
2019-04-22T04:00:45.509Z,2.73
2019-04-22T04:03:25.380Z,2.60
2019-04-22T04:06:00.310Z,2.60
2019-04-22T04:08:26.750Z,2.90
2019-04-22T04:10:53.192Z,2.70
2019-04-22T04:13:41.478Z,2.60
2019-04-22T04:16:10.422Z,2.60
2019-04-22T04:18:32.799Z,2.60
2019-04-22T04:21:14.536Z,2.30
2019-04-22T04:23:50.158Z,2.10
2019-04-22T04:26:05.141Z,2.57
2019-04-22T04:31:22.323Z,2.77
2019-04-22T04:36:11.560Z,2.80
2019-04-22T04:38:45.686Z,2.50
2019-04-22T04:41:31.270Z,2.43
2019-04-22T04:43:52.901Z,2.20
2019-04-22T04:46:29.965Z,2.40
2019-04-22T04:51:31.067Z,2.67
2019-04-22T04:54:01.186Z,2.63
2019-04-22T04:56:30.477Z,2.43
2019-04-22T04:59:05.763Z,2.40
2019-04-22T05:01:30.051Z,2.33
2019-04-22T05:06:40.021Z,2.20
2019-04-22T05:14:05.458Z,2.30
2019-04-22T05:19:24.042Z,2.77
2019-04-22T05:21:56.525Z,2.40
2019-04-22T05:24:09.609Z,2.50
2019-04-22T05:26:44.785Z,2.20
2019-04-22T05:29:11.371Z,2.40
2019-04-22T05:31:43.534Z,2.40
2019-04-22T05:34:17.452Z,2.20
2019-04-22T05:36:41.369Z,2.20
2019-04-22T05:41:48.757Z,2.30
2019-04-22T05:44:26.260Z,2.10
2019-04-22T05:46:49.907Z,2.20
2019-04-22T05:51:48.549Z,2.70
2019-04-22T05:54:27.345Z,2.30
2019-04-22T05:56:51.476Z,2.30
2019-04-22T05:59:32.883Z,2.50
2019-04-22T06:04:29.531Z,2.37
2019-04-22T06:07:00.103Z,2.30
2019-04-22T06:09:36.814Z,2.20
2019-04-22T06:11:58.978Z,2.17
2019-04-22T06:14:32.863Z,2.40
2019-04-22T06:17:12.401Z,2.03
2019-04-22T06:19:39.315Z,2.23
2019-04-22T06:22:25.477Z,2.23
2019-04-22T06:24:43.665Z,2.30
2019-04-22T06:27:21.633Z,2.50
2019-04-22T06:29:41.301Z,2.40
2019-04-22T06:32:26.298Z,2.10
2019-04-22T06:34:54.678Z,2.20
2019-04-22T06:37:30.308Z,2.00
2019-04-22T06:39:51.029Z,2.30
2019-04-22T06:42:28.259Z,2.03
2019-04-22T06:45:02.788Z,2.07
2019-04-22T06:47:45.924Z,2.27
2019-04-22T06:50:05.321Z,2.40
2019-04-22T06:52:32.794Z,2.40
2019-04-22T06:55:13.161Z,2.10
2019-04-22T06:57:41.417Z,2.37
2019-04-22T07:00:10.649Z,2.27
2019-04-22T07:02:56.353Z,2.30
2019-04-22T07:05:13.115Z,2.50
2019-04-22T07:07:38.676Z,2.13
2019-04-22T07:10:22.554Z,2.40
2019-04-22T07:12:47.193Z,2.30
2019-04-22T07:15:24.314Z,2.27
2019-04-22T07:17:50.851Z,2.40
2019-04-22T07:20:25.894Z,2.37
2019-04-22T07:22:59.920Z,2.53
2019-04-22T07:25:27.673Z,2.40
2019-04-22T07:27:52.125Z,2.50
2019-04-22T07:30:27.593Z,2.50
2019-04-22T07:33:13.785Z,2.30
2019-04-22T07:35:42.901Z,2.50
2019-04-22T07:38:07.851Z,2.57
2019-04-22T07:40:40.390Z,2.37
2019-04-22T07:43:05.453Z,2.33
2019-04-22T07:45:40.800Z,2.20
2019-04-22T07:48:22.567Z,2.70
2019-04-22T07:50:54.472Z,2.33
2019-04-22T07:53:10.677Z,2.20
2019-04-22T07:55:42.816Z,2.50
2019-04-22T07:58:18.721Z,2.30
2019-04-22T08:00:44.818Z,2.10
2019-04-22T08:03:22.075Z,2.30
2019-04-22T08:05:58.669Z,2.30
2019-04-22T08:10:57.953Z,2.30
2019-04-22T08:13:25.357Z,2.20
2019-04-22T08:15:58.225Z,2.17
2019-04-22T08:18:29.034Z,2.30
2019-04-22T08:20:58.680Z,2.23
2019-04-22T08:23:31.764Z,2.43
2019-04-22T08:26:03.419Z,2.40
2019-04-22T08:28:37.873Z,2.10
2019-04-22T08:31:10.536Z,2.20
2019-04-22T08:33:39.836Z,2.20
2019-04-22T08:38:50.426Z,2.23
2019-04-22T08:41:23.330Z,2.50
2019-04-22T08:43:52.366Z,2.40
2019-04-22T08:46:25.242Z,2.33
2019-04-22T08:56:37.701Z,2.20
2019-04-22T08:59:01.793Z,2.47
2019-04-22T09:04:02.405Z,2.20
2019-04-22T09:06:49.395Z,2.50
2019-04-22T09:09:09.724Z,2.40
2019-04-22T09:11:44.686Z,2.70
2019-04-22T09:14:14.019Z,2.10
2019-04-22T09:16:46.318Z,2.30
2019-04-22T09:19:15.414Z,2.20
2019-04-22T09:21:53.481Z,2.40
2019-04-22T09:24:16.518Z,2.50
2019-04-22T09:26:54.006Z,2.20
2019-04-22T09:29:32.613Z,2.20
2019-04-22T09:32:00.280Z,2.20
2019-04-22T09:34:29.791Z,2.80
2019-04-22T09:37:08.183Z,2.57
2019-04-22T09:42:04.968Z,2.33
2019-04-22T09:44:36.519Z,2.33
2019-04-22T09:47:06.832Z,2.20
2019-04-22T09:49:44.546Z,2.53
2019-04-22T09:52:10.290Z,2.40
2019-04-22T09:54:50.950Z,2.30
2019-04-22T09:57:20.393Z,2.37
2019-04-22T09:59:50.993Z,2.77
2019-04-22T10:02:26.707Z,2.30
2019-04-22T10:07:23.541Z,3.37
2019-04-22T10:09:59.806Z,3.10
2019-04-22T10:12:25.957Z,3.40
2019-04-22T10:14:53.943Z,3.50
2019-04-22T10:17:25.396Z,6.00
2019-04-22T10:19:53.729Z,3.47
2019-04-22T10:22:35.504Z,3.53
2019-04-22T10:25:01.932Z,3.60
2019-04-22T10:27:32.798Z,3.27
2019-04-22T10:30:04.485Z,3.50
2019-04-22T10:32:35.381Z,3.40
2019-04-22T10:35:04.977Z,3.40
2019-04-22T10:37:32.222Z,3.60
2019-04-22T10:40:05.783Z,3.20
2019-04-22T10:42:41.198Z,3.47
2019-04-22T10:45:12.377Z,3.40
2019-04-22T10:47:42.534Z,3.50
2019-04-22T10:50:12.488Z,3.73
2019-04-22T10:52:43.541Z,3.50
2019-04-22T10:55:13.864Z,3.13
2019-04-22T10:57:46.529Z,3.40
2019-04-22T11:00:17.652Z,3.77
2019-04-22T11:02:47.883Z,3.53
2019-04-22T11:05:17.847Z,4.27
2019-04-22T11:07:53.934Z,3.87
2019-04-22T11:10:35.480Z,5.37
2019-04-22T11:12:51.262Z,4.30
2019-04-22T11:15:22.538Z,3.87
2019-04-22T11:17:53.560Z,4.40
2019-04-22T11:20:23.822Z,4.10
2019-04-22T11:22:53.858Z,3.83
2019-04-22T11:25:23.781Z,4.40
2019-04-22T11:27:53.814Z,4.10
2019-04-22T11:30:26.383Z,4.40
2019-04-22T11:32:56.254Z,4.33
2019-04-22T11:35:45.877Z,4.30
2019-04-22T11:38:17.277Z,4.33
2019-04-22T11:40:50.473Z,4.40
2019-04-22T11:43:19.937Z,3.87
2019-04-22T11:45:51.197Z,5.03
2019-04-22T11:48:21.482Z,4.30
2019-04-22T11:50:55.882Z,4.30
2019-04-22T11:53:26.966Z,4.33
2019-04-22T11:55:58.761Z,4.07
2019-04-22T11:58:28.921Z,4.83
2019-04-22T12:00:59.262Z,4.27
2019-04-22T12:03:29.250Z,4.33
2019-04-22T12:05:59.840Z,4.20
2019-04-22T12:08:31.099Z,4.53
2019-04-22T12:11:04.360Z,4.40
2019-04-22T12:13:33.852Z,4.27
2019-04-22T12:16:05.246Z,4.67
2019-04-22T12:18:43.157Z,4.20
2019-04-22T12:21:15.272Z,4.47
2019-04-22T12:23:45.345Z,4.10
2019-04-22T12:26:18.828Z,4.30
2019-04-22T12:28:47.013Z,4.17
2019-04-22T12:31:17.705Z,4.50
2019-04-22T12:33:47.759Z,4.47
2019-04-22T12:36:18.222Z,3.97
2019-04-22T12:38:49.346Z,4.70
2019-04-22T12:41:19.717Z,4.07
2019-04-22T12:43:51.305Z,4.23
2019-04-22T12:46:21.531Z,4.07
2019-04-22T12:48:52.063Z,4.30
2019-04-22T12:51:23.299Z,3.93
2019-04-22T12:53:53.222Z,4.10
2019-04-22T12:56:27.834Z,4.20
2019-04-22T12:58:55.989Z,4.20
2019-04-22T13:01:26.846Z,4.57
2019-04-22T13:04:02.053Z,4.50
2019-04-22T13:06:30.150Z,4.60
2019-04-22T13:09:00.306Z,4.30
2019-04-22T13:11:35.953Z,4.33
2019-04-22T13:14:03.063Z,4.20
2019-04-22T13:16:33.177Z,4.47
2019-04-22T13:19:07.344Z,4.30
2019-04-22T13:21:38.521Z,3.93
2019-04-22T13:24:09.123Z,4.30
2019-04-22T13:27:33.182Z,3.93
2019-04-22T13:29:19.135Z,4.30
2019-04-22T13:31:50.530Z,5.27
2019-04-22T13:34:29.527Z,4.33
2019-04-22T13:36:52.896Z,4.20
2019-04-22T13:39:23.007Z,4.10
2019-04-22T13:41:59.950Z,4.03
2019-04-22T13:44:26.135Z,4.20
2019-04-22T13:47:29.768Z,3.87
2019-04-22T13:49:59.003Z,4.03
2019-04-22T13:52:40.908Z,4.00
2019-04-22T13:55:01.769Z,3.87
2019-04-22T13:57:27.990Z,4.03
2019-04-22T13:59:44.044Z,4.00
2019-04-22T14:02:32.631Z,4.30
2019-04-22T14:05:02.686Z,3.83
2019-04-22T14:07:34.754Z,4.50
2019-04-22T14:10:06.582Z,3.93
2019-04-22T14:12:37.128Z,4.07
2019-04-22T14:15:07.233Z,4.03
2019-04-22T14:17:39.076Z,4.13
2019-04-22T14:20:09.089Z,4.23
2019-04-22T14:22:39.077Z,3.93
2019-04-22T14:25:10.561Z,4.27
2019-04-22T14:27:50.017Z,4.03
2019-04-22T14:30:12.538Z,4.27
2019-04-22T14:32:45.773Z,4.27
2019-04-22T14:35:18.574Z,4.27
2019-04-22T14:37:50.296Z,4.37
2019-04-22T14:40:22.539Z,4.27
2019-04-22T14:44:49.502Z,4.37
2019-04-22T14:45:58.803Z,4.90
2019-04-22T14:48:22.590Z,4.30
2019-04-22T14:50:46.728Z,4.97
2019-04-22T14:53:21.738Z,4.40
2019-04-22T14:55:36.261Z,4.47
2019-04-22T14:58:04.790Z,4.47
2019-04-22T15:00:35.836Z,4.43
2019-04-22T15:03:05.988Z,4.20
2019-04-22T15:05:37.029Z,4.23
2019-04-22T15:08:07.188Z,4.20
2019-04-22T15:10:38.053Z,4.27
2019-04-22T15:13:11.557Z,4.47
2019-04-22T15:15:56.800Z,4.20
2019-04-22T15:18:35.730Z,4.10
2019-04-22T15:21:09.072Z,4.40
2019-04-22T15:23:40.346Z,5.23
2019-04-22T15:26:10.627Z,4.10
2019-04-22T15:28:41.767Z,4.10
2019-04-22T15:31:13.172Z,3.77
2019-04-22T15:33:47.040Z,4.40
2019-04-22T15:36:15.018Z,4.20
2019-04-22T15:38:45.098Z,4.03
2019-04-22T15:41:16.537Z,4.20
2019-04-22T15:43:47.754Z,4.00
2019-04-22T15:46:18.046Z,4.20
2019-04-22T15:48:48.462Z,4.17
2019-04-22T15:51:18.729Z,4.13
2019-04-22T15:53:49.849Z,4.00
2019-04-22T15:56:20.996Z,5.00
2019-04-22T15:58:53.350Z,5.00
2019-04-22T16:01:29.815Z,4.60
2019-04-22T16:03:58.878Z,4.30
2019-04-22T16:06:30.168Z,4.33
2019-04-22T16:09:00.465Z,4.30
2019-04-22T16:11:32.047Z,4.40
2019-04-22T16:14:02.180Z,4.33
2019-04-22T16:16:34.750Z,4.50
2019-04-22T16:19:06.802Z,4.80
2019-04-22T16:21:45.466Z,5.00
2019-04-22T16:24:40.407Z,5.13
2019-04-22T16:27:24.693Z,4.20
2019-04-22T16:29:59.293Z,4.23
2019-04-22T16:32:31.925Z,4.47
2019-04-22T16:35:04.709Z,4.30
2019-04-22T16:37:37.062Z,4.47
2019-04-22T16:40:07.294Z,4.50
2019-04-22T16:42:43.790Z,3.90
2019-04-22T16:45:09.443Z,4.30
2019-04-22T16:47:39.785Z,4.20
2019-04-22T16:50:09.999Z,4.10
2019-04-22T16:52:40.051Z,4.20
2019-04-22T16:55:10.664Z,4.10
2019-04-22T16:57:42.099Z,4.17
2019-04-22T17:00:13.127Z,4.00
2019-04-22T17:03:14.484Z,4.40
2019-04-22T17:06:03.619Z,4.20
2019-04-22T17:08:42.606Z,4.10
2019-04-22T17:11:13.691Z,4.43
2019-04-22T17:13:44.542Z,4.33
2019-04-22T17:16:18.158Z,3.83
2019-04-22T17:18:50.049Z,4.07
2019-04-22T17:21:21.565Z,4.30
2019-04-22T17:23:51.839Z,3.90
2019-04-22T17:26:24.178Z,4.10
2019-04-22T17:28:55.521Z,4.43
2019-04-22T17:31:26.817Z,4.40
2019-04-22T17:33:57.148Z,4.20
2019-04-22T17:36:27.329Z,4.50
2019-04-22T17:39:15.922Z,4.30
2019-04-22T17:41:50.468Z,4.50
2019-04-22T17:44:38.122Z,4.57
2019-04-22T17:47:23.425Z,4.77
2019-04-22T17:49:59.958Z,4.20
2019-04-22T17:52:38.872Z,4.43
2019-04-22T17:54:56.202Z,4.47
2019-04-22T17:57:32.499Z,4.27
2019-04-22T18:00:07.029Z,4.17
2019-04-22T18:02:39.709Z,4.60
2019-04-22T18:04:59.067Z,5.10
2019-04-22T18:07:44.441Z,4.57
2019-04-22T18:13:01.984Z,4.60
2019-04-22T18:15:17.841Z,4.37
2019-04-22T18:18:03.535Z,4.37
2019-04-22T18:20:22.624Z,4.40
2019-04-22T18:22:45.929Z,4.37
2019-04-22T18:25:24.379Z,4.43
2019-04-22T18:28:07.517Z,5.47
2019-04-22T18:30:25.772Z,4.80
2019-04-22T18:33:02.723Z,4.97
2019-04-22T18:35:33.983Z,5.13
2019-04-22T18:38:15.170Z,4.90
2019-04-22T18:40:42.665Z,4.47
2019-04-22T18:43:16.874Z,4.80
2019-04-22T18:48:08.947Z,5.17
2019-04-22T18:51:00.164Z,4.63
2019-04-22T18:53:52.031Z,5.23
2019-04-22T18:56:25.558Z,5.33
2019-04-22T18:58:47.551Z,5.00
2019-04-22T19:01:12.347Z,5.10
2019-04-22T19:03:54.149Z,5.30
2019-04-22T19:06:43.288Z,5.07
2019-04-22T19:09:11.935Z,5.10
2019-04-22T19:11:43.028Z,5.17
2019-04-22T19:14:10.420Z,5.50
2019-04-22T19:17:05.907Z,5.47
2019-04-22T19:19:29.740Z,5.53
2019-04-22T19:21:52.371Z,5.57
2019-04-22T19:24:22.973Z,5.90
2019-04-22T19:26:59.200Z,5.90
2019-04-22T19:29:33.591Z,5.47
2019-04-22T19:32:01.973Z,5.70
2019-04-22T19:34:36.807Z,5.73
2019-04-22T19:37:09.563Z,6.10
2019-04-22T19:39:52.553Z,6.10
2019-04-22T19:42:25.302Z,6.10
2019-04-22T19:44:55.196Z,6.20
2019-04-22T19:47:33.775Z,6.20
2019-04-22T19:50:05.651Z,6.10
2019-04-22T19:52:35.323Z,6.07
2019-04-22T19:55:11.007Z,6.53
2019-04-22T19:57:33.987Z,6.43
2019-04-22T20:00:18.405Z,6.47
2019-04-22T20:02:58.887Z,6.43
2019-04-22T20:05:43.647Z,6.20
2019-04-22T20:08:14.470Z,5.90
2019-04-22T20:10:42.097Z,6.33
2019-04-22T20:13:22.511Z,6.60
2019-04-22T20:15:38.722Z,6.43
2019-04-22T20:18:45.258Z,6.60
2019-04-22T20:20:58.466Z,6.70
2019-04-22T20:23:18.260Z,6.43
2019-04-22T20:25:51.084Z,6.77
2019-04-22T20:28:32.689Z,6.63
2019-04-22T20:30:55.475Z,6.77
2019-04-22T20:33:43.148Z,6.57
2019-04-22T20:36:13.003Z,6.37
2019-04-22T20:38:34.211Z,6.70
2019-04-22T20:41:05.589Z,6.73
2019-04-22T20:43:49.599Z,6.90
2019-04-22T20:46:19.087Z,7.40
2019-04-22T20:48:48.400Z,7.20
2019-04-22T20:51:14.027Z,7.67
2019-04-22T20:53:54.259Z,7.17
2019-04-22T20:56:18.670Z,7.50
2019-04-22T20:58:57.193Z,7.60
2019-04-22T21:01:30.081Z,7.67
2019-04-22T21:03:47.705Z,7.50
2019-04-22T21:06:37.644Z,7.00
2019-04-22T21:09:11.827Z,7.83
2019-04-22T21:11:34.046Z,7.60
2019-04-22T21:14:10.548Z,7.37
2019-04-22T21:16:43.116Z,7.63
2019-04-22T21:19:26.283Z,7.90
2019-04-22T21:21:50.253Z,7.33
2019-04-22T21:24:20.395Z,7.30
2019-04-22T21:27:01.985Z,7.83
2019-04-22T21:29:20.528Z,7.77
2019-04-22T21:31:54.657Z,7.83
2019-04-22T21:34:26.283Z,7.50
2019-04-22T21:37:12.207Z,7.23
2019-04-22T21:39:33.392Z,7.60
2019-04-22T21:41:58.922Z,7.10
2019-04-22T21:44:33.959Z,7.10
2019-04-22T21:47:16.309Z,7.23
2019-04-22T21:49:42.833Z,7.60
2019-04-22T21:52:13.228Z,7.20
2019-04-22T21:54:47.200Z,7.20
2019-04-22T21:57:28.272Z,7.17
2019-04-22T22:00:07.134Z,7.40
2019-04-22T22:02:35.707Z,6.97
2019-04-22T22:04:58.326Z,7.10
2019-04-22T22:07:21.202Z,7.40
2019-04-22T22:10:05.934Z,6.97
2019-04-22T22:12:44.114Z,7.07
2019-04-22T22:15:16.200Z,7.33
2019-04-22T22:17:58.633Z,7.17
2019-04-22T22:20:45.316Z,7.33
2019-04-22T22:23:14.833Z,7.03
2019-04-22T22:25:34.967Z,7.20
2019-04-22T22:28:30.068Z,7.17
2019-04-22T22:30:59.799Z,7.30
2019-04-22T22:33:17.398Z,7.13
2019-04-22T22:35:56.524Z,6.90
2019-04-22T22:38:24.258Z,6.80
2019-04-22T22:40:41.555Z,6.87
2019-04-22T22:43:18.126Z,7.50
2019-04-22T22:45:48.685Z,7.43
2019-04-22T22:48:41.433Z,6.97
2019-04-22T22:51:06.588Z,7.10
2019-04-22T22:53:40.104Z,7.17
2019-04-22T22:56:14.296Z,6.90
2019-04-22T22:58:40.825Z,7.30
2019-04-22T23:01:04.802Z,6.47
2019-04-22T23:03:51.334Z,7.00
2019-04-22T23:06:22.783Z,7.17
2019-04-22T23:08:53.409Z,7.40
2019-04-22T23:11:27.382Z,7.30
2019-04-22T23:13:51.232Z,7.20
2019-04-22T23:16:12.924Z,6.50
2019-04-22T23:18:34.074Z,6.83
2019-04-22T23:21:08.346Z,6.57
2019-04-22T23:23:52.948Z,6.20
2019-04-22T23:26:48.143Z,6.03
2019-04-22T23:29:30.594Z,6.23
2019-04-22T23:32:08.828Z,6.17
2019-04-22T23:34:49.759Z,6.37
2019-04-22T23:37:25.209Z,6.43
2019-04-22T23:40:13.443Z,5.97
2019-04-22T23:42:36.489Z,5.77
2019-04-22T23:45:09.322Z,6.10
2019-04-22T23:47:35.047Z,6.17
2019-04-22T23:50:18.197Z,6.00
2019-04-22T23:53:02.479Z,5.77
2019-04-22T23:55:33.444Z,6.03
2019-04-22T23:58:13.487Z,5.90
